Bei Facebook empfehlenBei Twitter postenGoogle plusPinterest

Das Wetter im Erzgebirge am 04.08.2017

Wetter und Klima am 04.08.2017 Holzhau im Erzgebirge (630m ü.NN)
Letzte gemessene Temperatur und Uhrzeit der Messung23:45:00 Uhr13.10 °C
Temperatur (Maximum / Höchstwert) und Uhrzeit der Messung13:00:00 Uhr26.40 °C
Temperatur (Minimum / Tiefstwert) und Uhrzeit der Messung23:45:0013.10 °C
Errechneter Absolutwert der Temperaturschwankungen zwischen Tmin und Tmax des Tages13.30 K
Errechnete Tagesmitteltemperatur19.78854 °C
Gesamt - Niederschlag des Tages (in flüssiger Form)0.00 Liter / m²
Luftdruck (Maximum / Höchstwert) und Zeitpunkt der Messung23:45:00 Uhr1013.10 hPa
Luftdruck (Minimum / Tiefstwert) und Zeitpunkt der Messung04:30:00 Uhr1010.60 hPa
Errechneter Absolutwert der Luftdruckschwankungen des Tages2.50 hPa
Höchste gemessene Windgeschwindigkeit und Uhrzeit der Messung05:30:00 Uhr53.28 km/h
Errechnete Windhäufigkeit in Relation zu den Messwerten des Tages35.41667 %
Niedrigste Windkühle (Windchill) und Zeitpunkt der Messung23:45:00 Uhr13.10 °C
Taupunkt (Maximum / Höchstwert) und Uhrzeit der Messung12:15:00 Uhr16.80 °C
Taupunkt (Minimum / Tiefstwert) und Uhrzeit der Messung22:30:0010.20 °C
Anzahl der automatisch eingelesenen Messwerte 96

Detaillierte Wetter- und Klima- Messwerte für den 04.08.2017 in Holzhau im Erzgebirge (630m ü.NN)
ZeitTemperaturLuftdruckRel. LuftfeuchteWindWindrichtungWindchillTaupunktNiederschlag l/m²
23:45:0013.10 °C1013.10 hPa84.00 %10.50 °C 
23:30:0013.40 °C1013.00 hPa84.00 %10.80 °C 
23:15:0013.40 °C1012.80 hPa84.00 %10.80 °C 
23:00:0013.30 °C1012.90 hPa83.00 %10.50 °C 
22:45:0013.30 °C1012.70 hPa82.00 %10.30 °C 
22:30:0013.60 °C1012.40 hPa80.00 %10.20 °C 
22:15:0014.20 °C1012.50 hPa79.00 %10.60 °C 
22:00:0014.60 °C1012.30 hPa78.00 %10.80 °C 
21:45:0015.10 °C1012.50 hPa78.00 %11.30 °C 
21:30:0015.40 °C1012.10 hPa76.00 %11.20 °C 
21:15:0016.10 °C1012.00 hPa73.00 %11.30 °C 
21:00:0016.90 °C1012.00 hPa70.00 %11.40 °C 
20:45:0017.90 °C1011.70 hPa69.00 %12.10 °C 
20:30:0018.90 °C1011.40 hPa66.00 %12.40 °C 
20:15:0019.90 °C1011.30 hPa63.00 %12.70 °C 
20:00:0020.70 °C1011.30 hPa61.00 %12.90 °C 
19:45:0021.10 °C1011.10 hPa60.00 %13.00 °C 
19:30:0021.60 °C1011.10 hPa59.00 %13.20 °C 
19:15:0022.20 °C1011.10 hPa57.00 %13.30 °C 
19:00:0022.70 °C1011.20 hPa55.00 %38.88 km/hW23.80 °C13.20 °C 
18:45:0023.10 °C1011.00 hPa54.00 %21.96 km/hW24.50 °C13.30 °C 
18:30:0023.50 °C1010.90 hPa53.00 %13.40 °C 
18:15:0023.90 °C1010.90 hPa53.00 %18.00 km/hSW25.50 °C13.70 °C 
18:00:0023.60 °C1010.90 hPa51.00 %23.40 km/hWSW25.10 °C12.90 °C 
17:45:0024.20 °C1010.70 hPa52.00 %12.96 km/hNNW24.20 °C13.70 °C 
17:30:0024.10 °C1011.10 hPa51.00 %33.84 km/hSW25.50 °C13.30 °C 
17:15:0024.40 °C1010.90 hPa52.00 %42.84 km/hSW25.80 °C13.90 °C 
17:00:0024.80 °C1010.80 hPa52.00 %14.30 °C 
16:45:0024.90 °C1010.80 hPa53.00 %14.70 °C 
16:30:0024.30 °C1010.80 hPa54.00 %14.40 °C 
16:15:0024.10 °C1010.90 hPa51.00 %5.04 km/hNW24.10 °C13.30 °C 
16:00:0024.40 °C1010.80 hPa51.00 %13.60 °C 
15:45:0025.20 °C1010.90 hPa49.00 %21.96 km/hSW26.90 °C13.70 °C 
15:30:0025.90 °C1010.90 hPa51.00 %5.04 km/hSW25.90 °C15.00 °C 
15:15:0025.60 °C1010.70 hPa53.00 %28.44 km/hWSW27.30 °C15.30 °C 
15:00:0025.20 °C1010.80 hPa56.00 %24.48 km/hWNW26.90 °C15.80 °C 
14:45:0025.10 °C1010.70 hPa57.00 %16.00 °C 
14:30:0025.20 °C1010.90 hPa56.00 %14.40 km/hSW25.20 °C15.80 °C 
14:15:0025.30 °C1010.90 hPa55.00 %37.44 km/hWSW26.90 °C15.60 °C 
14:00:0025.40 °C1010.90 hPa55.00 %15.70 °C 
13:45:0025.80 °C1010.90 hPa54.00 %15.80 °C 
13:30:0025.40 °C1011.00 hPa55.00 %15.70 °C 
13:15:0025.60 °C1010.80 hPa54.00 %14.40 km/hW25.60 °C15.60 °C 
13:00:0026.40 °C1010.80 hPa54.00 %18.00 km/hWSW28.40 °C16.30 °C 
12:45:0025.60 °C1011.00 hPa58.00 %1.44 km/hWNW25.60 °C16.70 °C 
12:30:0026.40 °C1011.00 hPa55.00 %16.60 °C 
12:15:0025.10 °C1011.00 hPa60.00 %16.80 °C 
12:00:0024.20 °C1011.00 hPa60.00 %28.44 km/hWSW25.70 °C15.90 °C 
11:45:0023.50 °C1011.00 hPa61.00 %15.50 °C 
11:30:0022.90 °C1011.20 hPa62.00 %23.40 km/hWNW24.30 °C15.20 °C 
11:15:0023.30 °C1011.40 hPa60.00 %7.92 km/hSW23.30 °C15.10 °C 
11:00:0023.30 °C1011.20 hPa61.00 %18.00 km/hSSW24.80 °C15.40 °C 
10:45:0022.70 °C1011.20 hPa64.00 %45.36 km/hSW23.70 °C15.50 °C 
10:30:0022.30 °C1011.10 hPa64.00 %15.20 °C 
10:15:0021.80 °C1011.10 hPa68.00 %10.44 km/hNW21.80 °C15.60 °C 
10:00:0021.30 °C1011.00 hPa70.00 %15.60 °C 
09:45:0020.80 °C1011.10 hPa72.00 %20.88 km/hSSW21.90 °C15.60 °C 
09:30:0020.40 °C1011.20 hPa72.00 %15.20 °C 
09:15:0020.00 °C1011.20 hPa74.00 %15.20 °C 
09:00:0019.70 °C1011.20 hPa76.00 %15.40 °C 
08:45:0019.30 °C1011.30 hPa78.00 %15.40 °C 
08:30:0018.70 °C1010.80 hPa79.00 %7.92 km/hWSW18.70 °C15.00 °C 
08:15:0018.40 °C1011.10 hPa79.00 %1.44 km/hSW18.40 °C14.70 °C 
08:00:0018.10 °C1011.10 hPa81.00 %1.44 km/hS18.10 °C14.80 °C 
07:45:0017.90 °C1011.10 hPa81.00 %14.60 °C 
07:30:0017.50 °C1011.10 hPa82.00 %5.04 km/hWSW17.50 °C14.40 °C 
07:15:0017.30 °C1011.10 hPa82.00 %14.20 °C 
07:00:0017.10 °C1010.90 hPa83.00 %14.20 °C 
06:45:0016.90 °C1010.90 hPa83.00 %16.92 km/hSW16.90 °C14.00 °C 
06:30:0017.10 °C1010.80 hPa82.00 %18.00 km/hWSW17.80 °C14.00 °C 
06:15:0017.20 °C1010.80 hPa82.00 %20.88 km/hWSW17.80 °C14.10 °C 
06:00:0017.20 °C1010.70 hPa83.00 %14.30 °C 
05:45:0016.90 °C1010.70 hPa85.00 %33.84 km/hWSW16.90 °C14.40 °C 
05:30:0016.30 °C1010.70 hPa89.00 %53.28 km/hSW15.70 °C14.50 °C 
05:15:0015.60 °C1010.70 hPa90.00 %9.00 km/hWSW15.60 °C14.00 °C 
05:00:0015.60 °C1010.80 hPa90.00 %14.00 °C 
04:45:0015.50 °C1010.70 hPa90.00 %13.90 °C 
04:30:0015.50 °C1010.60 hPa90.00 %13.90 °C 
04:15:0015.60 °C1010.60 hPa89.00 %13.80 °C 
04:00:0015.80 °C1010.80 hPa89.00 %14.00 °C 
03:45:0016.20 °C1010.70 hPa88.00 %14.20 °C 
03:30:0016.80 °C1011.00 hPa87.00 %14.60 °C 
03:15:0017.10 °C1011.00 hPa87.00 %14.90 °C 
03:00:0017.30 °C1011.30 hPa87.00 %15.10 °C 
02:45:0017.40 °C1011.40 hPa88.00 %15.40 °C 
02:30:0017.40 °C1011.40 hPa88.00 %15.40 °C 
02:15:0017.40 °C1011.10 hPa88.00 %15.40 °C 
02:00:0017.60 °C1011.20 hPa89.00 %15.80 °C 
01:45:0017.20 °C1011.40 hPa91.00 %15.70 °C 
01:30:0016.80 °C1011.60 hPa91.00 %15.30 °C 
01:15:0016.40 °C1011.70 hPa92.00 %15.10 °C 
01:00:0015.90 °C1011.60 hPa92.00 %14.60 °C 
00:45:0015.60 °C1011.40 hPa92.00 %14.30 °C 
00:30:0015.10 °C1011.60 hPa91.00 %13.60 °C 
00:15:0014.80 °C1011.40 hPa90.00 %13.20 °C 
00:00:0015.10 °C1011.40 hPa90.00 %13.50 °C 

Permanenter Link zu dieser Seite: Wetter im Erzgebirge am 04.08.2017
Performance-Info: Die Erstellung der Seite / Statistik(en) / Tabelle(n) erforderte 5 Datenbankserver-Abfrage(n) und dauerte 123 Millisekunden. (Dieser Messwert ist von der Gesamt-Auslastung des Servers abhängig.)
Erzgebirge - Wetter | Erzgebirge - Wetter (Mobilgeräte) | Komplette Klimadatenbank